Time;durP1;ratioP1;P1;durP2;ratioP2;P2;SDS_P1;SDS_P2;PMS_P1;PMS_P2;Temp;Humidity;BMP_temperature;BMP_pressure;BME280_temperature;BME280_humidity;BME280_pressure;Samples;Min_cycle;Max_cycle;Signal;HPM_P1;HPM_P2
2024/02/29 00:14:48;;;;;;;4.45;1.60;;;;;;;14.47;82.25;98141.19;6276091;22;20023;-95
2024/02/29 00:17:52;;;;;;;4.55;1.27;;;;;;;14.30;82.09;98112.66;6263852;22;20497;-95
2024/02/29 00:28:21;;;;;;;5.75;1.33;;;;;;;14.30;82.65;98119.81;6248309;23;20004;-93
2024/02/29 00:31:32;;;;;;;3.95;1.40;;;;;;;14.74;82.34;98183.50;6183992;22;20024;-95
2024/02/29 00:44:50;;;;;;;2.28;0.85;;;;;;;14.43;82.30;98118.22;6248366;22;20038;-95
2024/02/29 00:50:12;;;;;;;6.30;1.42;;;;;;;14.39;82.25;98114.84;6278544;22;20310;-94
2024/02/29 01:03:00;;;;;;;4.57;1.13;;;;;;;14.68;83.82;98143.69;6327472;22;20366;-95
2024/02/29 01:38:15;;;;;;;5.35;1.48;;;;;;;14.16;85.06;98049.22;6338407;22;20026;-93
2024/02/29 01:50:58;;;;;;;2.35;1.02;;;;;;;14.48;87.25;98094.75;6347935;22;20503;-93
2024/02/29 01:53:28;;;;;;;6.55;1.52;;;;;;;14.28;88.29;98084.28;6298248;22;21126;-95
2024/02/29 01:58:40;;;;;;;5.15;1.13;;;;;;;14.49;88.01;98069.75;6245281;22;20256;-96
2024/02/29 02:17:07;;;;;;;5.55;0.90;;;;;;;14.39;88.99;98056.00;6229057;23;20079;-95
2024/02/29 02:40:28;;;;;;;6.65;1.33;;;;;;;14.65;86.13;98045.72;6283413;22;20498;-95
2024/02/29 02:42:33;;;;;;;2.25;0.90;;;;;;;14.31;86.59;98049.31;6221554;22;20381;-94
2024/02/29 02:54:20;;;;;;;1.40;0.70;;;;;;;14.55;82.62;98002.56;6308821;22;20022;-96
2024/02/29 03:30:06;;;;;;;2.10;0.60;;;;;;;14.54;88.18;98008.81;6255344;22;20517;-95
2024/02/29 03:43:35;;;;;;;3.72;0.57;;;;;;;14.28;90.40;97958.56;6361156;22;20446;-94
2024/02/29 03:52:02;;;;;;;3.83;1.27;;;;;;;14.35;92.56;97970.66;6300260;22;20051;-92
2024/02/29 04:13:45;;;;;;;3.83;0.80;;;;;;;13.83;100.00;97969.00;6308645;22;20018;-95
2024/02/29 04:16:35;;;;;;;3.17;1.27;;;;;;;13.97;100.00;97968.28;6324554;22;20019;-95
2024/02/29 04:23:12;;;;;;;5.10;1.08;;;;;;;13.96;100.00;97975.41;6275304;22;20028;-96
2024/02/29 04:30:14;;;;;;;3.70;0.70;;;;;;;13.74;97.29;97903.53;6340992;22;20044;-95
2024/02/29 04:33:57;;;;;;;2.05;0.88;;;;;;;13.68;97.79;97901.19;6239701;23;20016;-96
2024/02/29 04:36:43;;;;;;;5.03;1.33;;;;;;;14.04;95.84;97940.25;6136917;23;20044;-94
2024/02/29 04:53:14;;;;;;;4.22;1.02;;;;;;;14.22;94.15;97974.94;6244953;22;20043;31
2024/02/29 04:55:44;;;;;;;5.28;0.75;;;;;;;14.28;93.76;97980.81;6249208;22;20007;-94
2024/02/29 04:58:17;;;;;;;9.20;1.33;;;;;;;14.14;95.10;97978.06;6288188;22;20720;31
2024/02/29 05:04:04;;;;;;;4.15;0.70;;;;;;;14.16;95.60;97971.69;6265841;22;20113;31
2024/02/29 05:17:46;;;;;;;4.35;1.05;;;;;;;14.01;91.77;97924.41;6414436;22;20018;-95
2024/02/29 05:20:39;;;;;;;5.15;0.88;;;;;;;14.17;90.86;97948.47;6371754;22;20017;-96
2024/02/29 05:23:47;;;;;;;4.32;1.23;;;;;;;14.37;91.53;97976.78;6389390;22;20018;-96
2024/02/29 05:26:35;;;;;;;8.82;1.08;;;;;;;14.21;92.31;97978.59;6380066;22;20426;-93
2024/02/29 05:34:38;;;;;;;2.60;0.73;;;;;;;14.31;91.35;97987.81;6400460;22;20014;-95
2024/02/29 05:44:30;;;;;;;5.35;1.10;;;;;;;14.11;91.19;97957.69;6197115;23;20574;-94
2024/02/29 05:47:00;;;;;;;4.05;1.02;;;;;;;14.23;90.79;97976.69;6227276;23;20019;-96
2024/02/29 05:49:55;;;;;;;2.83;0.88;;;;;;;13.96;90.83;97923.75;6226297;23;20103;-95
2024/02/29 05:52:54;;;;;;;5.72;0.77;;;;;;;13.87;90.69;97908.22;6225257;23;20019;-95
2024/02/29 05:55:26;;;;;;;6.65;0.98;;;;;;;14.28;90.44;97982.66;6106336;23;20073;-95
2024/02/29 06:01:55;;;;;;;5.00;1.08;;;;;;;14.10;90.80;97989.88;6020725;23;20020;-95
2024/02/29 06:28:52;;;;;;;8.35;1.10;;;;;;;13.90;89.64;97941.00;6336834;22;20030;-96
2024/02/29 06:34:23;;;;;;;4.45;1.08;;;;;;;13.92;91.21;97948.94;6327833;22;20026;-96
2024/02/29 06:42:18;;;;;;;5.10;1.02;;;;;;;13.84;93.27;97948.50;6366752;22;20380;-95
2024/02/29 07:02:51;;;;;;;3.40;0.60;;;;;;;14.10;99.49;98020.13;6330691;22;20019;31
2024/02/29 07:07:54;;;;;;;1.17;0.82;;;;;;;13.41;100.00;97966.78;6329947;22;20019;-96
2024/02/29 07:14:04;;;;;;;2.20;0.60;;;;;;;13.69;100.00;98038.34;6312906;22;20023;-92
2024/02/29 07:26:03;;;;;;;5.03;1.10;;;;;;;13.30;100.00;97997.53;6302277;22;20257;-93
2024/02/29 07:31:57;;;;;;;3.88;0.90;;;;;;;13.95;100.00;98021.81;6331012;22;20407;-95
2024/02/29 07:38:17;;;;;;;4.55;0.90;;;;;;;13.82;100.00;98025.22;6306626;22;20022;-92
2024/02/29 07:40:58;;;;;;;5.13;0.95;;;;;;;13.47;100.00;97986.00;6329814;22;20014;-94
2024/02/29 07:55:55;;;;;;;1.02;0.50;;;;;;;13.81;100.00;98028.81;6316454;22;20023;-92
2024/02/29 07:58:31;;;;;;;2.05;0.68;;;;;;;13.89;100.00;98030.13;6286208;22;20054;-96
2024/02/29 08:06:45;;;;;;;1.15;0.60;;;;;;;13.43;100.00;97967.56;6270697;22;20033;-96
2024/02/29 08:17:54;;;;;;;1.10;0.45;;;;;;;13.73;100.00;98031.91;6299471;22;21177;31
2024/02/29 08:29:58;;;;;;;2.25;1.35;;;;;;;13.23;100.00;97968.50;6365981;22;20521;-95
2024/02/29 08:32:38;;;;;;;;;;;;;;;13.84;100.00;98040.22;6361956;22;19999;-96
2024/02/29 08:35:55;;;;;;;3.60;0.77;;;;;;;13.76;100.00;98034.41;6347787;22;19945;-95
2024/02/29 08:53:03;;;;;;;4.38;1.08;;;;;;;13.84;100.00;98039.34;6389588;22;19952;-94
2024/02/29 08:58:31;;;;;;;1.55;0.70;;;;;;;14.08;100.00;98016.66;6337814;22;20013;-94
2024/02/29 09:01:16;;;;;;;1.13;1.02;;;;;;;13.81;100.00;97996.75;6331299;22;20018;-95
2024/02/29 09:09:17;;;;;;;3.03;1.10;;;;;;;14.33;100.00;97978.78;6296533;22;20013;-94
2024/02/29 09:15:02;;;;;;;1.98;1.23;;;;;;;14.88;95.66;97976.66;6347351;22;20022;-94
2024/02/29 09:17:58;;;;;;;2.85;1.13;;;;;;;14.40;96.45;97979.31;6325683;22;20007;-94
2024/02/29 09:23:09;;;;;;;;;;;;;;;;;;;;;
2024/02/29 09:29:10;;;;;;;2.15;1.00;;;;;;;14.64;96.06;98046.69;6333404;22;20031;-95
2024/02/29 09:31:50;;;;;;;2.63;1.10;;;;;;;14.31;97.15;98043.97;6321721;22;19999;-90
2024/02/29 09:34:34;;;;;;;4.07;1.23;;;;;;;14.66;97.45;98047.47;6325270;22;20022;-94
2024/02/29 09:37:09;;;;;;;3.85;1.58;;;;;;;14.17;97.02;98004.63;6354048;22;20074;-96
2024/02/29 09:39:45;;;;;;;4.70;1.33;;;;;;;14.54;97.71;98040.06;6306313;22;20871;-95
2024/02/29 09:46:16;;;;;;;3.85;1.10;;;;;;;14.39;92.71;97982.91;6322115;22;20311;-94
2024/02/29 09:48:45;;;;;;;2.45;1.13;;;;;;;14.69;90.87;97987.56;6253684;22;20024;-93
2024/02/29 09:54:06;;;;;;;6.28;1.67;;;;;;;14.91;93.71;98000.56;6321058;22;21145;-96
2024/02/29 09:56:42;;;;;;;4.38;1.90;;;;;;;14.41;91.30;97978.34;6271493;22;20110;-95
2024/02/29 10:02:23;;;;;;;6.28;1.92;;;;;;;14.76;92.52;98042.44;6198449;23;20020;-96
2024/02/29 10:05:01;;;;;;;2.10;1.30;;;;;;;14.52;93.50;98009.84;6298965;22;20000;-96
2024/02/29 10:15:25;;;;;;;4.13;1.70;;;;;;;14.42;94.37;98040.72;5033356;28;20023;-95
2024/02/29 10:25:03;;;;;;;5.95;2.53;;;;;;;14.81;91.92;98037.69;2935094;22;20358;31
2024/02/29 10:28:04;;;;;;;;;;;;;;;;;;;;;
2024/02/29 10:31:05;;;;;;;5.57;2.47;;;;;;;14.73;92.69;98018.53;5014601;28;20042;-93
2024/02/29 10:44:30;;;;;;;4.15;2.17;;;;;;;14.45;94.47;97993.28;5078622;22;20056;-96
2024/02/29 10:47:18;;;;;;;5.38;2.40;;;;;;;14.54;94.38;98002.59;5092034;22;20053;-96
2024/02/29 10:50:19;;;;;;;;;;;;;;;;;;;;;
2024/02/29 10:53:06;;;;;;;5.43;2.10;;;;;;;14.36;96.26;97993.78;5544159;22;20072;31
2024/02/29 10:55:51;;;;;;;3.30;2.60;;;;;;;14.35;97.07;98008.09;5064591;22;20049;-96
2024/02/29 10:58:48;;;;;;;6.80;3.70;;;;;;;14.22;98.21;98002.56;5160559;22;20047;-95
2024/02/29 11:03:54;;;;;;;6.50;3.38;;;;;;;14.06;100.00;98007.00;5740114;22;20264;-94
2024/02/29 11:09:32;;;;;;;6.18;3.40;;;;;;;13.89;98.81;97938.41;5768557;22;20035;-94
2024/02/29 11:14:52;;;;;;;7.70;4.00;;;;;;;13.98;100.00;97992.22;5629665;22;20032;-92
2024/02/29 11:17:18;;;;;;;7.22;2.95;;;;;;;13.52;100.00;97935.03;5080632;28;20068;-93
2024/02/29 11:20:21;;;;;;;6.25;3.40;;;;;;;13.89;100.00;97995.41;5129413;22;20156;-95
2024/02/29 11:25:40;;;;;;;7.40;3.22;;;;;;;13.58;100.00;97952.56;5446947;22;20063;-95
2024/02/29 11:28:18;;;;;;;9.52;4.30;;;;;;;13.75;100.00;97963.22;5318605;22;20053;-96
2024/02/29 11:33:12;;;;;;;9.18;3.65;;;;;;;13.85;100.00;97968.91;5073032;28;20166;-94
2024/02/29 11:41:00;;;;;;;9.02;3.58;;;;;;;14.01;100.00;97959.16;5074640;28;20087;-89
2024/02/29 11:47:01;;;;;;;6.55;3.47;;;;;;;13.50;100.00;97832.75;5190436;22;20047;-96
2024/02/29 11:52:18;;;;;;;8.35;3.88;;;;;;;14.22;100.00;97959.75;5318606;22;20049;-95
2024/02/29 12:00:55;;;;;;;4.20;2.55;;;;;;;13.92;99.23;97850.03;2723623;22;20215;31
2024/02/29 12:42:49;;;;;;;9.40;3.40;;;;;;;14.95;90.06;97874.47;5618663;22;20038;-94
2024/02/29 12:58:27;;;;;;;9.40;3.25;;;;;;;16.13;80.91;97798.47;4986248;28;20058;-95
2024/02/29 13:01:17;;;;;;;9.80;3.05;;;;;;;16.59;78.77;97832.97;4978396;28;20062;-93
2024/02/29 13:04:49;;;;;;;15.00;3.20;;;;;;;16.36;79.75;97827.31;5092802;23;20066;-96
2024/02/29 13:07:29;;;;;;;14.35;3.03;;;;;;;16.62;79.06;97812.19;4937875;29;20047;-96
2024/02/29 13:10:11;;;;;;;11.40;3.42;;;;;;;16.63;76.97;97808.56;4930842;29;20055;-96
2024/02/29 13:16:51;;;;;;;8.15;3.47;;;;;;;16.32;76.41;97742.63;4928028;29;20047;-96
2024/02/29 13:21:53;;;;;;;8.48;2.70;;;;;;;16.45;76.42;97803.53;5020777;23;20054;-95
2024/02/29 13:24:33;;;;;;;10.18;2.60;;;;;;;16.61;76.91;97805.09;5007734;28;20042;-96
2024/02/29 13:27:08;;;;;;;12.23;3.15;;;;;;;17.01;76.24;97786.31;4977480;28;20042;-96
2024/02/29 13:42:29;;;;;;;5.88;1.92;;;;;;;17.31;74.71;97785.16;5400097;23;20054;-95
2024/02/29 13:46:18;;;;;;;;;;;;;;;;;;;;;
2024/02/29 13:50:10;;;;;;;;;;;;;;;;;;;;;
2024/02/29 13:56:42;;;;;;;9.93;2.25;;;;;;;16.06;77.80;97717.53;4987989;28;20042;-96
2024/02/29 13:59:57;;;;;;;5.10;1.98;;;;;;;16.09;78.44;97717.38;5226123;23;20069;-96
2024/02/29 14:08:09;;;;;;;7.18;2.17;;;;;;;15.71;84.69;97760.91;5531921;23;20050;-96
2024/02/29 14:14:05;;;;;;;8.98;2.03;;;;;;;15.96;84.83;97775.41;5004809;28;20062;-96
2024/02/29 14:16:43;;;;;;;5.63;2.30;;;;;;;15.58;86.02;97759.97;5123194;23;20069;-96
2024/02/29 14:19:16;;;;;;;5.40;2.10;;;;;;;15.60;87.08;97776.81;5003312;28;20376;-96
2024/02/29 14:22:01;;;;;;;9.95;2.40;;;;;;;15.21;86.88;97740.84;5008183;28;20046;-96
2024/02/29 14:24:33;;;;;;;7.38;2.20;;;;;;;15.19;89.84;97772.22;5005279;28;20062;-96
2024/02/29 14:27:18;;;;;;;7.95;2.55;;;;;;;15.22;88.12;97699.69;5003814;28;20134;-96
2024/02/29 14:29:44;;;;;;;5.78;1.92;;;;;;;15.80;85.38;97764.84;5002310;28;20038;-96
2024/02/29 14:38:39;;;;;;;8.02;1.70;;;;;;;15.92;80.81;97766.72;5454535;23;21552;31
2024/02/29 14:41:06;;;;;;;6.70;1.88;;;;;;;15.65;82.15;97718.41;5971349;23;19927;-96
2024/02/29 14:54:07;;;;;;;6.05;1.95;;;;;;;15.00;89.15;97697.50;5002892;28;20058;-96
2024/02/29 14:59:40;;;;;;;8.65;2.70;;;;;;;15.06;91.79;97741.78;5005729;28;20058;-96
2024/02/29 15:02:25;;;;;;;6.80;2.00;;;;;;;14.69;91.83;97664.63;5001349;28;20042;-96
2024/02/29 15:08:14;;;;;;;5.10;1.40;;;;;;;14.67;90.77;97673.69;5177558;23;20058;-96
2024/02/29 15:10:42;;;;;;;4.85;1.33;;;;;;;14.69;89.65;97658.41;5005344;28;20481;-96
2024/02/29 15:13:08;;;;;;;6.13;1.27;;;;;;;15.10;89.15;97733.47;5022843;28;20038;-95
2024/02/29 15:15:37;;;;;;;5.97;1.80;;;;;;;14.82;89.05;97669.22;5030766;28;20030;-96
2024/02/29 15:18:04;;;;;;;4.80;1.10;;;;;;;15.06;88.25;97715.03;5019276;28;20045;-96
2024/02/29 15:20:33;;;;;;;3.28;1.25;;;;;;;14.96;87.73;97698.66;5080921;23;20470;-96
2024/02/29 15:29:47;;;;;;;4.25;1.52;;;;;;;14.97;89.13;97687.84;4910726;29;20060;-96
2024/02/29 15:32:24;;;;;;;;;;;;;;;15.28;89.86;97741.31;4911709;29;20074;-96
2024/02/29 15:34:51;;;;;;;7.18;2.97;;;;;;;15.24;90.16;97746.00;4906742;29;19923;-96
2024/02/29 15:37:27;;;;;;;7.32;2.85;;;;;;;14.96;94.46;97699.53;4908909;29;20052;-96
2024/02/29 15:39:55;;;;;;;6.78;3.17;;;;;;;14.70;97.80;97702.94;4907079;29;20047;-96
2024/02/29 15:42:48;;;;;;;8.82;2.78;;;;;;;14.25;100.00;97684.19;4911984;29;20408;-96
2024/02/29 15:45:35;;;;;;;7.78;2.17;;;;;;;14.51;100.00;97744.16;4910385;29;20571;-96
2024/02/29 15:48:37;;;;;;;9.52;2.58;;;;;;;14.61;100.00;97775.72;4912547;29;20100;-96
2024/02/29 15:55:11;;;;;;;7.75;3.05;;;;;;;14.30;100.00;97761.47;4889369;29;20145;-96
2024/02/29 16:05:18;;;;;;;6.53;2.40;;;;;;;14.08;100.00;97744.00;4818438;29;20038;-95
2024/02/29 16:07:49;;;;;;;9.25;2.88;;;;;;;14.07;100.00;97787.69;4832617;29;20050;-95
2024/02/29 16:10:29;;;;;;;8.73;3.63;;;;;;;14.03;100.00;97788.84;4847518;29;20042;-96
2024/02/29 16:13:03;;;;;;;9.30;3.08;;;;;;;13.91;100.00;97774.34;4831670;29;20110;-95
2024/02/29 16:15:42;;;;;;;8.25;3.40;;;;;;;13.84;100.00;97748.94;4823829;29;20543;-95
2024/02/29 16:18:12;;;;;;;6.07;2.55;;;;;;;13.96;100.00;97782.09;4829821;29;20038;-96
2024/02/29 16:20:41;;;;;;;10.25;3.15;;;;;;;13.30;100.00;97714.53;4832839;29;20148;-96
2024/02/29 16:23:07;;;;;;;3.65;1.45;;;;;;;13.13;100.00;97702.06;4828954;29;20136;-96
2024/02/29 16:25:33;;;;;;;6.60;1.90;;;;;;;13.51;100.00;97787.25;4887411;29;20040;-96
2024/02/29 16:27:59;;;;;;;3.90;1.85;;;;;;;13.23;100.00;97745.16;4905847;29;20050;-96
2024/02/29 16:30:25;;;;;;;7.82;1.75;;;;;;;13.29;100.00;97751.97;4919887;29;20023;-96
2024/02/29 16:33:00;;;;;;;3.92;1.48;;;;;;;13.57;100.00;97780.69;4958397;28;20499;-96
2024/02/29 16:35:32;;;;;;;9.38;2.10;;;;;;;13.49;100.00;97783.81;4965355;28;20043;-96
2024/02/29 16:38:03;;;;;;;7.43;2.33;;;;;;;13.35;100.00;97781.03;4964774;28;20055;-95
2024/02/29 16:40:30;;;;;;;3.85;1.90;;;;;;;13.04;100.00;97713.25;4968643;28;20477;-96
2024/02/29 16:43:02;;;;;;;7.28;2.28;;;;;;;13.39;100.00;97779.06;4967557;28;20042;-95
2024/02/29 16:45:28;;;;;;;5.70;2.60;;;;;;;13.10;100.00;97766.28;4963029;28;20098;-94
2024/02/29 16:47:55;;;;;;;8.30;2.33;;;;;;;13.14;100.00;97765.19;4960515;28;20112;-94
2024/02/29 16:50:22;;;;;;;5.82;1.70;;;;;;;13.29;100.00;97795.59;4962034;28;20046;-96
2024/02/29 16:52:50;;;;;;;7.93;1.63;;;;;;;13.26;100.00;97797.50;4963267;28;20039;-96
2024/02/29 16:55:17;;;;;;;5.63;2.30;;;;;;;13.29;100.00;97794.69;4977301;28;20382;-96
2024/02/29 16:57:46;;;;;;;6.30;2.50;;;;;;;12.80;100.00;97723.41;4962408;28;20050;-95
2024/02/29 17:00:17;;;;;;;12.38;4.18;;;;;;;13.24;100.00;97794.91;4960688;28;20063;-94
2024/02/29 17:02:46;;;;;;;12.85;4.30;;;;;;;13.07;100.00;97770.94;4958234;28;20051;-95
2024/02/29 17:05:14;;;;;;;10.05;3.78;;;;;;;13.24;100.00;97796.72;4962377;28;20573;-94
2024/02/29 17:07:40;;;;;;;6.25;2.03;;;;;;;12.71;100.00;97706.09;4959772;28;20035;-95
2024/02/29 17:10:08;;;;;;;3.85;2.25;;;;;;;13.13;100.00;97792.81;4967247;28;20049;-94
2024/02/29 17:12:36;;;;;;;2.97;1.60;;;;;;;12.86;100.00;97763.13;4974901;28;20074;-94
2024/02/29 17:15:02;;;;;;;6.88;1.88;;;;;;;12.72;100.00;97755.81;4968199;28;20057;-95
2024/02/29 17:17:31;;;;;;;8.30;2.60;;;;;;;12.69;100.00;97769.31;4967218;28;20106;-95
2024/02/29 17:19:57;;;;;;;6.63;1.95;;;;;;;12.56;100.00;97746.91;4968925;28;20059;-94
2024/02/29 17:22:27;;;;;;;7.25;2.00;;;;;;;12.83;100.00;97795.28;4979664;28;20053;-94
2024/02/29 17:24:53;;;;;;;4.45;2.30;;;;;;;12.65;100.00;97777.56;4983064;28;20050;-94
2024/02/29 17:27:19;;;;;;;4.70;2.08;;;;;;;12.40;100.00;97754.81;4979843;28;20026;-92
2024/02/29 17:29:47;;;;;;;4.85;1.90;;;;;;;12.55;100.00;97747.81;4980660;28;20097;-91
2024/02/29 17:32:13;;;;;;;6.75;2.28;;;;;;;12.38;100.00;97729.16;4977436;28;20043;-92
2024/02/29 17:34:42;;;;;;;3.83;1.50;;;;;;;12.74;100.00;97801.09;4975524;28;20038;-92
2024/02/29 17:37:13;;;;;;;7.38;2.22;;;;;;;12.40;100.00;97749.47;4991282;28;20065;-92
2024/02/29 17:39:39;;;;;;;7.07;2.53;;;;;;;12.57;100.00;97793.94;4970660;28;20451;-92
2024/02/29 17:42:06;;;;;;;8.10;2.10;;;;;;;12.49;100.00;97805.03;4964242;28;20109;-93
2024/02/29 17:44:32;;;;;;;7.78;1.77;;;;;;;12.24;100.00;97753.88;4971420;28;20047;-92
2024/02/29 17:47:00;;;;;;;6.65;2.38;;;;;;;12.41;100.00;97787.69;4992118;28;20074;-92
2024/02/29 17:49:29;;;;;;;6.13;2.17;;;;;;;12.27;100.00;97751.94;4978040;28;20143;-92
2024/02/29 17:51:56;;;;;;;7.07;2.17;;;;;;;12.37;100.00;97760.31;4962681;28;20038;-94
2024/02/29 17:54:25;;;;;;;10.07;2.28;;;;;;;12.31;100.00;97753.47;4959066;28;20042;-94
2024/02/29 17:56:52;;;;;;;6.43;2.15;;;;;;;12.63;100.00;97806.13;4959110;28;20047;-95
2024/02/29 17:59:21;;;;;;;6.25;2.05;;;;;;;12.42;100.00;97757.41;4963838;28;20074;-93
2024/02/29 18:01:49;;;;;;;6.28;2.17;;;;;;;12.68;100.00;97790.75;4966951;28;20876;-95
2024/02/29 18:04:19;;;;;;;5.15;3.17;;;;;;;12.52;100.00;97748.00;4957993;28;20081;-95
2024/02/29 18:07:36;;;;;;;8.07;2.60;;;;;;;12.69;100.00;97773.81;4975241;28;20042;-96
2024/02/29 18:10:04;;;;;;;4.97;1.83;;;;;;;12.58;100.00;97753.03;4959419;28;20118;-96
2024/02/29 18:12:30;;;;;;;8.45;2.60;;;;;;;12.25;100.00;97704.94;4976844;28;20050;-96
2024/02/29 18:15:00;;;;;;;8.65;2.80;;;;;;;12.54;100.00;97762.97;4976429;28;20047;-95
2024/02/29 18:17:35;;;;;;;6.40;2.30;;;;;;;12.35;100.00;97714.19;4979744;28;20054;-95
2024/02/29 18:20:16;;;;;;;5.72;2.50;;;;;;;12.60;100.00;97756.47;4981955;28;20074;-96
2024/02/29 18:22:51;;;;;;;5.47;2.55;;;;;;;12.29;100.00;97707.38;4994028;28;20066;-95
2024/02/29 18:25:24;;;;;;;8.73;3.70;;;;;;;12.08;100.00;97672.03;4998542;28;20027;-96
2024/02/29 18:27:56;;;;;;;;;;;;;;;12.53;100.00;97736.38;4999348;28;20029;-96
2024/02/29 18:30:41;;;;;;;9.68;4.97;;;;;;;12.18;100.00;97669.75;4998564;28;19906;-96
2024/02/29 18:34:07;;;;;;;10.27;5.93;;;;;;;12.11;100.00;97669.19;4994810;28;20051;-96
2024/02/29 18:36:45;;;;;;;9.98;4.68;;;;;;;12.24;100.00;97684.56;4909612;29;20055;-96
2024/02/29 18:39:12;;;;;;;10.70;5.43;;;;;;;12.49;100.00;97727.69;4985852;28;20043;-94
2024/02/29 18:41:41;;;;;;;8.02;4.43;;;;;;;12.16;100.00;97676.09;4985357;28;20130;-95
2024/02/29 18:44:14;;;;;;;8.52;5.28;;;;;;;12.07;100.00;97661.44;4986329;28;20042;-94
2024/02/29 18:46:42;;;;;;;12.00;5.15;;;;;;;12.18;100.00;97698.19;4985522;28;20047;-95
2024/02/29 18:49:13;;;;;;;12.35;5.88;;;;;;;12.31;100.00;97712.63;4985676;28;20047;-95
2024/02/29 18:51:47;;;;;;;13.32;5.82;;;;;;;12.15;100.00;97674.38;4985535;28;20458;-95
2024/02/29 18:54:19;;;;;;;15.80;6.07;;;;;;;12.24;100.00;97698.75;4969551;28;20067;-95
2024/02/29 18:56:58;;;;;;;10.73;6.03;;;;;;;12.42;100.00;97738.75;4969112;28;20066;-96
2024/02/29 18:59:24;;;;;;;14.05;6.03;;;;;;;12.49;100.00;97738.34;4968340;28;20055;-96
2024/02/29 19:02:20;;;;;;;;;;;;;;;;;;;;;
2024/02/29 19:05:02;;;;;;;13.65;5.70;;;;;;;12.35;100.00;97753.34;4974334;28;20065;-94
2024/02/29 19:08:02;;;;;;;12.75;5.57;;;;;;;12.01;100.00;97683.91;4989050;28;20043;-94
2024/02/29 19:10:39;;;;;;;9.02;4.28;;;;;;;12.38;100.00;97740.69;4969975;28;20380;-96
2024/02/29 19:13:12;;;;;;;8.18;4.32;;;;;;;12.41;100.00;97731.69;4968349;28;20047;-96
2024/02/29 19:15:39;;;;;;;9.50;4.53;;;;;;;11.99;100.00;97727.56;4970684;28;20051;-95
2024/02/29 19:18:32;;;;;;;9.40;3.53;;;;;;;11.40;100.00;97637.19;4968927;28;20517;-96
2024/02/29 19:47:31;;;;;;;8.65;2.88;;;;;;;12.27;100.00;97679.06;4758890;29;20062;-96
2024/02/29 19:50:32;;;;;;;7.90;3.50;;;;;;;12.23;100.00;97678.38;4737142;30;20133;-96
2024/02/29 19:53:13;;;;;;;12.25;5.68;;;;;;;12.28;100.00;97667.47;4757229;30;20064;-95
2024/02/29 19:56:10;;;;;;;;;;;;;;;;;;;;;
2024/02/29 19:58:43;;;;;;;12.07;5.72;;;;;;;11.83;100.00;97604.91;4741777;30;20063;-96
2024/02/29 20:01:15;;;;;;;12.10;4.95;;;;;;;11.81;100.00;97609.44;4759110;30;20051;-95
2024/02/29 20:03:47;;;;;;;9.73;5.75;;;;;;;12.01;100.00;97632.44;4779464;30;20056;-95
2024/02/29 20:06:17;;;;;;;12.50;5.72;;;;;;;12.32;100.00;97677.03;4777957;30;20059;-94
2024/02/29 20:11:32;;;;;;;10.45;5.05;;;;;;;12.18;100.00;97656.41;5910043;23;20046;-96
2024/02/29 20:14:05;;;;;;;10.50;5.70;;;;;;;12.28;100.00;97664.81;4953029;29;20047;-95
2024/02/29 20:16:42;;;;;;;10.43;5.78;;;;;;;12.13;100.00;97621.16;4960298;28;20043;-96
2024/02/29 20:19:14;;;;;;;11.45;5.38;;;;;;;12.35;100.00;97655.53;4961910;29;20050;-96
2024/02/29 20:22:03;;;;;;;11.40;5.50;;;;;;;12.35;100.00;97665.34;4966931;29;20047;-96
2024/02/29 20:24:34;;;;;;;10.88;5.32;;;;;;;12.23;100.00;97653.50;4966666;28;20051;-96
2024/02/29 20:27:08;;;;;;;10.40;5.72;;;;;;;11.80;100.00;97597.94;4969126;28;20134;-95
2024/02/29 20:29:40;;;;;;;12.73;5.53;;;;;;;12.24;100.00;97653.44;4966015;28;20063;-96
2024/02/29 20:32:27;;;;;;;13.35;6.57;;;;;;;12.08;100.00;97641.84;4963341;28;20051;-96
2024/02/29 20:34:56;;;;;;;14.77;5.70;;;;;;;12.01;100.00;97613.78;4963899;28;20054;-96
2024/02/29 20:37:27;;;;;;;16.55;6.50;;;;;;;12.32;100.00;97661.06;4963155;28;20051;-96
2024/02/29 20:39:54;;;;;;;10.55;4.70;;;;;;;12.25;100.00;97660.50;4963027;28;20146;-96
2024/02/29 20:42:20;;;;;;;8.95;5.45;;;;;;;12.22;100.00;97659.78;4961811;28;20046;-96
2024/02/29 20:44:51;;;;;;;9.02;4.82;;;;;;;12.23;100.00;97657.06;4961402;28;20046;-96
2024/02/29 20:47:23;;;;;;;13.27;6.53;;;;;;;12.18;100.00;97669.75;4963369;28;20050;-96
2024/02/29 20:49:49;;;;;;;10.93;6.05;;;;;;;11.86;100.00;97626.03;4964623;28;20051;-96
2024/02/29 20:52:15;;;;;;;10.30;5.20;;;;;;;11.72;100.00;97611.63;4962632;28;20069;-95
2024/02/29 20:54:49;;;;;;;11.57;5.57;;;;;;;11.66;100.00;97590.63;4964107;28;20046;-96
2024/02/29 20:57:33;;;;;;;16.20;7.35;;;;;;;11.72;100.00;97600.97;4963673;28;20118;-96
2024/02/29 21:00:20;;;;;;;13.07;5.97;;;;;;;11.75;100.00;97588.44;4964552;28;20051;-96
2024/02/29 21:03:07;;;;;;;12.90;5.88;;;;;;;12.18;100.00;97663.56;4972293;28;20580;-96
2024/02/29 21:05:48;;;;;;;10.88;5.55;;;;;;;11.70;100.00;97599.34;4967372;28;20043;-96
2024/02/29 21:08:29;;;;;;;13.27;6.22;;;;;;;12.13;100.00;97669.13;4966209;28;20138;-96
2024/02/29 21:11:04;;;;;;;12.85;6.38;;;;;;;12.06;100.00;97655.25;4964055;28;20064;-96
2024/02/29 21:13:33;;;;;;;12.90;6.10;;;;;;;12.18;100.00;97671.56;4980888;28;20054;-96
2024/02/29 21:16:02;;;;;;;12.40;6.63;;;;;;;12.26;100.00;97664.03;4989983;28;20069;-96
2024/02/29 21:18:35;;;;;;;11.65;5.57;;;;;;;12.24;100.00;97665.91;5000751;28;20069;-94
2024/02/29 21:21:06;;;;;;;17.95;6.72;;;;;;;11.87;100.00;97590.50;5001035;28;20042;-96
2024/02/29 21:23:38;;;;;;;17.08;6.55;;;;;;;12.25;100.00;97651.63;5002371;28;20038;-94
2024/02/29 21:26:10;;;;;;;17.20;7.68;;;;;;;12.26;100.00;97658.69;4994710;28;20077;-96
2024/02/29 21:28:37;;;;;;;12.68;7.10;;;;;;;11.95;100.00;97614.09;4985168;28;20082;-95
2024/02/29 21:46:10;;;;;;;10.20;5.82;;;;;;;11.94;100.00;97663.84;4159531;23;20119;-95
2024/02/29 21:48:40;;;;;;;12.68;6.47;;;;;;;11.71;100.00;97633.03;4920540;29;20047;-95
2024/02/29 21:51:06;;;;;;;14.73;6.03;;;;;;;11.89;100.00;97668.56;4920816;29;20135;-95
2024/02/29 21:53:39;;;;;;;13.60;6.88;;;;;;;11.74;100.00;97642.66;4920859;29;20044;-94
2024/02/29 21:56:11;;;;;;;12.65;7.13;;;;;;;11.67;100.00;97636.78;4923018;29;20044;-96
2024/02/29 21:58:43;;;;;;;13.73;6.70;;;;;;;11.87;100.00;97659.75;4922001;29;20054;-95
2024/02/29 22:01:23;;;;;;;13.27;7.60;;;;;;;11.74;100.00;97619.53;4921659;29;20138;-95
2024/02/29 22:03:57;;;;;;;12.82;7.70;;;;;;;11.87;100.00;97654.44;4923391;29;20460;-95
2024/02/29 22:06:27;;;;;;;14.43;7.18;;;;;;;11.42;100.00;97589.19;4923493;29;20518;-94
2024/02/29 22:09:04;;;;;;;15.02;6.95;;;;;;;11.78;100.00;97650.41;4926444;29;20090;-95
2024/02/29 22:11:33;;;;;;;13.32;7.57;;;;;;;11.75;100.00;97639.03;4941778;29;20042;-95
2024/02/29 22:13:59;;;;;;;16.70;7.47;;;;;;;11.21;100.00;97568.03;4940598;29;20503;-95
2024/02/29 22:16:28;;;;;;;13.85;6.28;;;;;;;11.19;100.00;97566.34;4957718;29;20483;-95
2024/02/29 22:18:57;;;;;;;9.85;5.20;;;;;;;11.68;100.00;97647.34;4940059;29;20098;-95
2024/02/29 22:21:30;;;;;;;12.15;5.05;;;;;;;11.67;100.00;97647.44;4940573;29;20066;-95
2024/02/29 22:23:57;;;;;;;9.30;5.30;;;;;;;11.56;100.00;97612.47;4940083;29;20487;-96
2024/02/29 22:26:23;;;;;;;10.13;4.80;;;;;;;11.23;100.00;97570.59;4941104;29;20071;-95
2024/02/29 22:28:51;;;;;;;9.40;4.78;;;;;;;11.77;100.00;97645.16;4955820;29;20073;-95
2024/02/29 22:31:17;;;;;;;9.20;4.35;;;;;;;11.72;100.00;97640.91;4940039;29;20102;-96
2024/02/29 22:33:51;;;;;;;9.23;4.25;;;;;;;11.76;100.00;97657.63;4940312;29;20146;-95
2024/02/29 22:36:18;;;;;;;10.23;4.32;;;;;;;11.77;100.00;97650.47;4939765;29;20054;-96
2024/02/29 22:38:47;;;;;;;7.90;4.30;;;;;;;11.72;100.00;97643.59;4941380;29;20074;-95
2024/02/29 22:41:14;;;;;;;9.48;4.40;;;;;;;11.33;100.00;97573.69;4940988;29;20047;-96
2024/02/29 22:43:41;;;;;;;10.77;5.22;;;;;;;11.74;100.00;97648.84;4940400;29;20134;-95
2024/02/29 22:46:08;;;;;;;7.88;4.97;;;;;;;11.48;100.00;97588.91;4940627;28;20051;-95
2024/02/29 22:48:43;;;;;;;11.27;6.03;;;;;;;11.57;100.00;97609.72;4958971;28;20394;-95
2024/02/29 22:51:13;;;;;;;14.10;6.03;;;;;;;11.72;100.00;97642.72;4958915;28;20047;-96
2024/02/29 22:53:39;;;;;;;15.75;6.43;;;;;;;11.70;100.00;97641.94;4959113;28;20047;-95
2024/02/29 22:56:06;;;;;;;7.70;5.07;;;;;;;11.69;100.00;97634.91;4959212;28;20053;-96